sensor_id;sensor_type;location;lat;lon;timestamp;P1;P2;P0
80628;PMS5003;69983;42.370;-71.210;2024-03-23T00:53:02;199;170;
80628;PMS5003;69983;42.370;-71.210;2024-03-23T00:55:02;184;158;
80628;PMS5003;69983;42.370;-71.210;2024-03-23T00:57:03;157;136;
80628;PMS5003;69983;42.370;-71.210;2024-03-23T00:59:03;137;124;
80628;PMS5003;69983;42.370;-71.210;2024-03-23T01:01:03;129;117;
80628;PMS5003;69983;42.370;-71.210;2024-03-23T01:03:04;115;106;
80628;PMS5003;69983;42.370;-71.210;2024-03-23T01:05:04;96;90;
80628;PMS5003;69983;42.370;-71.210;2024-03-23T01:07:05;95;86;
80628;PMS5003;69983;42.370;-71.210;2024-03-23T01:09:05;79;74;
80628;PMS5003;69983;42.370;-71.210;2024-03-23T01:11:05;80;71;
80628;PMS5003;69983;42.370;-71.210;2024-03-23T01:13:06;76;60;
80628;PMS5003;69983;42.370;-71.210;2024-03-23T01:15:08;64;54;
80628;PMS5003;69983;42.370;-71.210;2024-03-23T01:17:07;56;49;
80628;PMS5003;69983;42.370;-71.210;2024-03-23T01:19:08;49;45;
80628;PMS5003;69983;42.370;-71.210;2024-03-23T01:21:08;45;41;
80628;PMS5003;69983;42.370;-71.210;2024-03-23T01:23:08;44;39;
80628;PMS5003;69983;42.370;-71.210;2024-03-23T01:25:09;48;40;
80628;PMS5003;69983;42.370;-71.210;2024-03-23T01:27:08;40;32;
80628;PMS5003;69983;42.370;-71.210;2024-03-23T01:29:09;35;30;
80628;PMS5003;69983;42.370;-71.210;2024-03-23T01:31:10;33;29;
80628;PMS5003;69983;42.370;-71.210;2024-03-23T01:33:10;183;157;
80628;PMS5003;69983;42.370;-71.210;2024-03-23T01:35:11;295;255;
80628;PMS5003;69983;42.370;-71.210;2024-03-23T01:37:11;289;255;
80628;PMS5003;69983;42.370;-71.210;2024-03-23T01:39:11;343;282;
80628;PMS5003;69983;42.370;-71.210;2024-03-23T01:41:12;369;288;
80628;PMS5003;69983;42.370;-71.210;2024-03-23T01:43:12;318;260;
80628;PMS5003;69983;42.370;-71.210;2024-03-23T01:45:13;378;300;
80628;PMS5003;69983;42.370;-71.210;2024-03-23T01:47:13;363;274;
80628;PMS5003;69983;42.370;-71.210;2024-03-23T01:49:13;330;243;
80628;PMS5003;69983;42.370;-71.210;2024-03-23T01:51:14;310;232;
80628;PMS5003;69983;42.370;-71.210;2024-03-23T01:53:14;348;247;
80628;PMS5003;69983;42.370;-71.210;2024-03-23T01:55:15;309;207;
80628;PMS5003;69983;42.370;-71.210;2024-03-23T01:57:15;281;191;
80628;PMS5003;69983;42.370;-71.210;2024-03-23T01:59:16;289;195;
80628;PMS5003;69983;42.370;-71.210;2024-03-23T02:01:16;251;184;
80628;PMS5003;69983;42.370;-71.210;2024-03-23T02:03:23;245;172;
80628;PMS5003;69983;42.370;-71.210;2024-03-23T02:05:17;271;180;
80628;PMS5003;69983;42.370;-71.210;2024-03-23T02:07:17;247;166;
80628;PMS5003;69983;42.370;-71.210;2024-03-23T02:09:17;215;146;
80628;PMS5003;69983;42.370;-71.210;2024-03-23T02:11:18;192;133;
80628;PMS5003;69983;42.370;-71.210;2024-03-23T02:13:19;176;109;
80628;PMS5003;69983;42.370;-71.210;2024-03-23T02:15:19;198;142;
80628;PMS5003;69983;42.370;-71.210;2024-03-23T02:17:20;225;167;
80628;PMS5003;69983;42.370;-71.210;2024-03-23T02:19:20;315;229;
80628;PMS5003;69983;42.370;-71.210;2024-03-23T02:21:20;291;221;
80628;PMS5003;69983;42.370;-71.210;2024-03-23T02:23:21;274;209;
80628;PMS5003;69983;42.370;-71.210;2024-03-23T02:25:21;270;217;
80628;PMS5003;69983;42.370;-71.210;2024-03-23T02:27:22;247;186;
80628;PMS5003;69983;42.370;-71.210;2024-03-23T02:29:22;216;163;
80628;PMS5003;69983;42.370;-71.210;2024-03-23T02:31:22;203;145;
80628;PMS5003;69983;42.370;-71.210;2024-03-23T02:33:23;177;142;
80628;PMS5003;69983;42.370;-71.210;2024-03-23T02:35:23;177;138;
80628;PMS5003;69983;42.370;-71.210;2024-03-23T02:37:23;168;119;
80628;PMS5003;69983;42.370;-71.210;2024-03-23T02:39:24;163;120;
80628;PMS5003;69983;42.370;-71.210;2024-03-23T02:41:25;148;109;
80628;PMS5003;69983;42.370;-71.210;2024-03-23T02:43:26;133;93;
80628;PMS5003;69983;42.370;-71.210;2024-03-23T02:45:27;265;217;
80628;PMS5003;69983;42.370;-71.210;2024-03-23T02:47:27;302;242;
80628;PMS5003;69983;42.370;-71.210;2024-03-23T02:49:27;258;215;
80628;PMS5003;69983;42.370;-71.210;2024-03-23T02:51:27;240;191;
80628;PMS5003;69983;42.370;-71.210;2024-03-23T02:53:28;205;164;
80628;PMS5003;69983;42.370;-71.210;2024-03-23T02:55:27;279;209;
80628;PMS5003;69983;42.370;-71.210;2024-03-23T02:57:28;257;192;
80628;PMS5003;69983;42.370;-71.210;2024-03-23T02:59:29;238;177;
80628;PMS5003;69983;42.370;-71.210;2024-03-23T03:01:29;215;152;
80628;PMS5003;69983;42.370;-71.210;2024-03-23T03:03:30;211;152;
80628;PMS5003;69983;42.370;-71.210;2024-03-23T03:05:30;172;130;
80628;PMS5003;69983;42.370;-71.210;2024-03-23T03:07:30;175;130;
80628;PMS5003;69983;42.370;-71.210;2024-03-23T03:09:31;165;114;
80628;PMS5003;69983;42.370;-71.210;2024-03-23T03:11:32;130;102;
80628;PMS5003;69983;42.370;-71.210;2024-03-23T03:13:32;121;93;
80628;PMS5003;69983;42.370;-71.210;2024-03-23T03:15:33;119;85;
80628;PMS5003;69983;42.370;-71.210;2024-03-23T03:17:33;111;77;
80628;PMS5003;69983;42.370;-71.210;2024-03-23T03:19:33;93;69;
80628;PMS5003;69983;42.370;-71.210;2024-03-23T03:21:34;96;73;
80628;PMS5003;69983;42.370;-71.210;2024-03-23T03:23:34;172;129;
80628;PMS5003;69983;42.370;-71.210;2024-03-23T03:25:35;188;140;
80628;PMS5003;69983;42.370;-71.210;2024-03-23T03:27:35;183;135;
80628;PMS5003;69983;42.370;-71.210;2024-03-23T03:29:35;179;128;
80628;PMS5003;69983;42.370;-71.210;2024-03-23T03:31:36;171;114;
80628;PMS5003;69983;42.370;-71.210;2024-03-23T03:33:36;155;116;
80628;PMS5003;69983;42.370;-71.210;2024-03-23T03:35:38;124;96;
80628;PMS5003;69983;42.370;-71.210;2024-03-23T03:37:38;117;89;
80628;PMS5003;69983;42.370;-71.210;2024-03-23T03:39:38;106;72;
80628;PMS5003;69983;42.370;-71.210;2024-03-23T03:41:38;97;68;
80628;PMS5003;69983;42.370;-71.210;2024-03-23T03:43:39;94;65;
80628;PMS5003;69983;42.370;-71.210;2024-03-23T03:45:39;155;124;
80628;PMS5003;69983;42.370;-71.210;2024-03-23T03:47:39;155;112;
80628;PMS5003;69983;42.370;-71.210;2024-03-23T03:49:40;166;120;
80628;PMS5003;69983;42.370;-71.210;2024-03-23T03:51:40;160;120;
80628;PMS5003;69983;42.370;-71.210;2024-03-23T03:53:41;127;88;
80628;PMS5003;69983;42.370;-71.210;2024-03-23T03:55:41;118;85;
80628;PMS5003;69983;42.370;-71.210;2024-03-23T03:57:41;93;71;
80628;PMS5003;69983;42.370;-71.210;2024-03-23T03:59:42;91;64;
80628;PMS5003;69983;42.370;-71.210;2024-03-23T04:01:42;72;48;
80628;PMS5003;69983;42.370;-71.210;2024-03-23T04:03:43;63;51;
80628;PMS5003;69983;42.370;-71.210;2024-03-23T04:05:47;91;59;
80628;PMS5003;69983;42.370;-71.210;2024-03-23T04:07:44;105;64;
80628;PMS5003;69983;42.370;-71.210;2024-03-23T04:09:45;83;54;
80628;PMS5003;69983;42.370;-71.210;2024-03-23T04:11:45;70;45;
80628;PMS5003;69983;42.370;-71.210;2024-03-23T04:13:45;51;38;
80628;PMS5003;69983;42.370;-71.210;2024-03-23T04:15:46;55;38;
80628;PMS5003;69983;42.370;-71.210;2024-03-23T04:17:46;44;34;
80628;PMS5003;69983;42.370;-71.210;2024-03-23T04:19:47;47;31;
80628;PMS5003;69983;42.370;-71.210;2024-03-23T04:21:47;42;31;
80628;PMS5003;69983;42.370;-71.210;2024-03-23T04:23:48;35;30;
80628;PMS5003;69983;42.370;-71.210;2024-03-23T04:25:48;42;24;
80628;PMS5003;69983;42.370;-71.210;2024-03-23T04:27:49;37;24;
80628;PMS5003;69983;42.370;-71.210;2024-03-23T04:29:49;51;40;
80628;PMS5003;69983;42.370;-71.210;2024-03-23T04:31:49;98;72;
80628;PMS5003;69983;42.370;-71.210;2024-03-23T04:33:50;151;105;
80628;PMS5003;69983;42.370;-71.210;2024-03-23T04:35:50;215;153;
80628;PMS5003;69983;42.370;-71.210;2024-03-23T04:37:51;205;140;
80628;PMS5003;69983;42.370;-71.210;2024-03-23T04:39:52;186;129;
80628;PMS5003;69983;42.370;-71.210;2024-03-23T04:41:52;161;104;
80628;PMS5003;69983;42.370;-71.210;2024-03-23T04:43:52;130;94;
80628;PMS5003;69983;42.370;-71.210;2024-03-23T04:45:53;136;80;
80628;PMS5003;69983;42.370;-71.210;2024-03-23T04:47:54;146;87;
80628;PMS5003;69983;42.370;-71.210;2024-03-23T04:49:53;98;69;
80628;PMS5003;69983;42.370;-71.210;2024-03-23T04:51:54;92;61;
80628;PMS5003;69983;42.370;-71.210;2024-03-23T04:53:54;107;61;
80628;PMS5003;69983;42.370;-71.210;2024-03-23T04:55:55;103;77;
80628;PMS5003;69983;42.370;-71.210;2024-03-23T04:57:55;123;97;
80628;PMS5003;69983;42.370;-71.210;2024-03-23T04:59:55;122;96;
80628;PMS5003;69983;42.370;-71.210;2024-03-23T05:01:56;97;80;
80628;PMS5003;69983;42.370;-71.210;2024-03-23T05:03:56;145;95;
80628;PMS5003;69983;42.370;-71.210;2024-03-23T05:05:56;125;88;
80628;PMS5003;69983;42.370;-71.210;2024-03-23T05:07:57;132;97;
80628;PMS5003;69983;42.370;-71.210;2024-03-23T05:09:57;129;84;
80628;PMS5003;69983;42.370;-71.210;2024-03-23T05:11:58;116;76;
80628;PMS5003;69983;42.370;-71.210;2024-03-23T05:13:58;93;64;
80628;PMS5003;69983;42.370;-71.210;2024-03-23T05:15:59;74;49;
80628;PMS5003;69983;42.370;-71.210;2024-03-23T05:17:59;76;53;
80628;PMS5003;69983;42.370;-71.210;2024-03-23T05:20:00;48;40;
80628;PMS5003;69983;42.370;-71.210;2024-03-23T05:22:01;60;42;
80628;PMS5003;69983;42.370;-71.210;2024-03-23T05:24:01;88;52;
80628;PMS5003;69983;42.370;-71.210;2024-03-23T05:26:01;68;51;
80628;PMS5003;69983;42.370;-71.210;2024-03-23T05:28:02;107;88;
80628;PMS5003;69983;42.370;-71.210;2024-03-23T05:30:02;124;98;
80628;PMS5003;69983;42.370;-71.210;2024-03-23T05:32:03;133;105;
80628;PMS5003;69983;42.370;-71.210;2024-03-23T05:34:03;170;104;
80628;PMS5003;69983;42.370;-71.210;2024-03-23T05:36:04;116;85;
80628;PMS5003;69983;42.370;-71.210;2024-03-23T05:38:04;108;82;
80628;PMS5003;69983;42.370;-71.210;2024-03-23T05:40:05;97;66;
80628;PMS5003;69983;42.370;-71.210;2024-03-23T05:42:06;115;79;
80628;PMS5003;69983;42.370;-71.210;2024-03-23T05:44:06;131;87;
80628;PMS5003;69983;42.370;-71.210;2024-03-23T05:46:07;120;81;
80628;PMS5003;69983;42.370;-71.210;2024-03-23T05:48:07;101;66;
80628;PMS5003;69983;42.370;-71.210;2024-03-23T05:50:08;81;58;
80628;PMS5003;69983;42.370;-71.210;2024-03-23T05:52:08;78;52;
80628;PMS5003;69983;42.370;-71.210;2024-03-23T05:54:08;76;44;
80628;PMS5003;69983;42.370;-71.210;2024-03-23T05:56:09;56;43;
80628;PMS5003;69983;42.370;-71.210;2024-03-23T05:58:10;40;27;
80628;PMS5003;69983;42.370;-71.210;2024-03-23T06:00:10;54;29;
80628;PMS5003;69983;42.370;-71.210;2024-03-23T06:02:12;38;29;
80628;PMS5003;69983;42.370;-71.210;2024-03-23T06:04:11;38;23;
80628;PMS5003;69983;42.370;-71.210;2024-03-23T06:06:12;258;226;
80628;PMS5003;69983;42.370;-71.210;2024-03-23T06:08:12;344;288;
80628;PMS5003;69983;42.370;-71.210;2024-03-23T06:10:13;294;260;
80628;PMS5003;69983;42.370;-71.210;2024-03-23T06:12:14;283;248;
80628;PMS5003;69983;42.370;-71.210;2024-03-23T06:14:14;255;230;
80628;PMS5003;69983;42.370;-71.210;2024-03-23T06:16:14;244;208;
80628;PMS5003;69983;42.370;-71.210;2024-03-23T06:18:15;217;184;
80628;PMS5003;69983;42.370;-71.210;2024-03-23T06:20:16;192;170;
80628;PMS5003;69983;42.370;-71.210;2024-03-23T06:22:16;168;152;
80628;PMS5003;69983;42.370;-71.210;2024-03-23T06:24:16;162;144;
80628;PMS5003;69983;42.370;-71.210;2024-03-23T06:26:16;147;127;
80628;PMS5003;69983;42.370;-71.210;2024-03-23T06:28:16;130;110;
80628;PMS5003;69983;42.370;-71.210;2024-03-23T06:30:16;106;95;
80628;PMS5003;69983;42.370;-71.210;2024-03-23T06:32:17;100;89;
80628;PMS5003;69983;42.370;-71.210;2024-03-23T06:34:16;97;85;
80628;PMS5003;69983;42.370;-71.210;2024-03-23T06:36:17;92;76;
80628;PMS5003;69983;42.370;-71.210;2024-03-23T06:38:18;84;70;
80628;PMS5003;69983;42.370;-71.210;2024-03-23T06:40:19;69;63;
80628;PMS5003;69983;42.370;-71.210;2024-03-23T06:42:19;60;54;
80628;PMS5003;69983;42.370;-71.210;2024-03-23T06:44:19;58;53;
80628;PMS5003;69983;42.370;-71.210;2024-03-23T06:46:20;59;48;
80628;PMS5003;69983;42.370;-71.210;2024-03-23T06:48:21;50;41;
80628;PMS5003;69983;42.370;-71.210;2024-03-23T06:50:21;42;38;
80628;PMS5003;69983;42.370;-71.210;2024-03-23T06:52:22;36;33;
80628;PMS5003;69983;42.370;-71.210;2024-03-23T06:54:24;32;29;
80628;PMS5003;69983;42.370;-71.210;2024-03-23T06:56:24;38;31;
80628;PMS5003;69983;42.370;-71.210;2024-03-23T06:58:24;30;28;
80628;PMS5003;69983;42.370;-71.210;2024-03-23T07:00:24;25;23;
80628;PMS5003;69983;42.370;-71.210;2024-03-23T07:02:28;23;21;
80628;PMS5003;69983;42.370;-71.210;2024-03-23T07:04:25;18;16;
80628;PMS5003;69983;42.370;-71.210;2024-03-23T07:06:25;22;18;
80628;PMS5003;69983;42.370;-71.210;2024-03-23T07:08:25;20;17;
80628;PMS5003;69983;42.370;-71.210;2024-03-23T07:10:26;15;14;
80628;PMS5003;69983;42.370;-71.210;2024-03-23T07:12:27;19;17;
80628;PMS5003;69983;42.370;-71.210;2024-03-23T07:14:27;14;13;
80628;PMS5003;69983;42.370;-71.210;2024-03-23T07:16:27;12;12;
80628;PMS5003;69983;42.370;-71.210;2024-03-23T07:18:28;12;10;
80628;PMS5003;69983;42.370;-71.210;2024-03-23T07:20:28;13;13;
80628;PMS5003;69983;42.370;-71.210;2024-03-23T07:22:28;11;9;
80628;PMS5003;69983;42.370;-71.210;2024-03-23T07:24:28;9;9;
80628;PMS5003;69983;42.370;-71.210;2024-03-23T07:26:28;11;9;
80628;PMS5003;69983;42.370;-71.210;2024-03-23T07:28:29;10;9;
80628;PMS5003;69983;42.370;-71.210;2024-03-23T07:30:29;10;8;
80628;PMS5003;69983;42.370;-71.210;2024-03-23T07:32:29;7;5;
80628;PMS5003;69983;42.370;-71.210;2024-03-23T07:34:29;6;6;
80628;PMS5003;69983;42.370;-71.210;2024-03-23T07:36:29;9;7;
80628;PMS5003;69983;42.370;-71.210;2024-03-23T07:38:29;4;4;
80628;PMS5003;69983;42.370;-71.210;2024-03-23T07:40:29;6;3;
80628;PMS5003;69983;42.370;-71.210;2024-03-23T07:42:30;6;3;
80628;PMS5003;69983;42.370;-71.210;2024-03-23T07:44:29;6;4;
80628;PMS5003;69983;42.370;-71.210;2024-03-23T07:46:30;3;3;
80628;PMS5003;69983;42.370;-71.210;2024-03-23T07:48:30;3;3;
80628;PMS5003;69983;42.370;-71.210;2024-03-23T07:50:30;3;2;
80628;PMS5003;69983;42.370;-71.210;2024-03-23T07:52:30;9;4;
80628;PMS5003;69983;42.370;-71.210;2024-03-23T07:54:30;4;3;
80628;PMS5003;69983;42.370;-71.210;2024-03-23T07:56:30;3;2;
80628;PMS5003;69983;42.370;-71.210;2024-03-23T07:58:30;3;2;
80628;PMS5003;69983;42.370;-71.210;2024-03-23T08:00:30;2;0;
80628;PMS5003;69983;42.370;-71.210;2024-03-23T08:02:31;2;2;
80628;PMS5003;69983;42.370;-71.210;2024-03-23T08:04:30;3;2;
80628;PMS5003;69983;42.370;-71.210;2024-03-23T08:06:31;2;2;
80628;PMS5003;69983;42.370;-71.210;2024-03-23T08:08:31;2;2;
80628;PMS5003;69983;42.370;-71.210;2024-03-23T08:10:31;3;2;
80628;PMS5003;69983;42.370;-71.210;2024-03-23T08:12:31;1;1;
80628;PMS5003;69983;42.370;-71.210;2024-03-23T08:14:31;2;1;
80628;PMS5003;69983;42.370;-71.210;2024-03-23T08:16:31;1;1;
80628;PMS5003;69983;42.370;-71.210;2024-03-23T08:18:31;0;0;
80628;PMS5003;69983;42.370;-71.210;2024-03-23T08:20:31;1;1;
80628;PMS5003;69983;42.370;-71.210;2024-03-23T08:22:31;4;0;
80628;PMS5003;69983;42.370;-71.210;2024-03-23T08:24:31;1;1;
80628;PMS5003;69983;42.370;-71.210;2024-03-23T08:26:31;0;0;
80628;PMS5003;69983;42.370;-71.210;2024-03-23T08:28:32;1;1;
80628;PMS5003;69983;42.370;-71.210;2024-03-23T08:30:31;1;1;
80628;PMS5003;69983;42.370;-71.210;2024-03-23T08:32:32;2;2;
80628;PMS5003;69983;42.370;-71.210;2024-03-23T08:34:32;1;1;
80628;PMS5003;69983;42.370;-71.210;2024-03-23T08:36:32;1;1;
80628;PMS5003;69983;42.370;-71.210;2024-03-23T08:38:32;2;0;
80628;PMS5003;69983;42.370;-71.210;2024-03-23T08:40:32;0;0;
80628;PMS5003;69983;42.370;-71.210;2024-03-23T08:42:32;0;0;
80628;PMS5003;69983;42.370;-71.210;2024-03-23T08:44:32;3;0;
80628;PMS5003;69983;42.370;-71.210;2024-03-23T08:46:32;0;0;
80628;PMS5003;69983;42.370;-71.210;2024-03-23T08:48:32;0;0;
80628;PMS5003;69983;42.370;-71.210;2024-03-23T08:50:32;0;0;
80628;PMS5003;69983;42.370;-71.210;2024-03-23T08:52:33;0;0;
80628;PMS5003;69983;42.370;-71.210;2024-03-23T08:54:33;0;0;
80628;PMS5003;69983;42.370;-71.210;2024-03-23T08:56:33;0;0;
80628;PMS5003;69983;42.370;-71.210;2024-03-23T08:58:33;0;0;
80628;PMS5003;69983;42.370;-71.210;2024-03-23T09:00:33;0;0;
80628;PMS5003;69983;42.370;-71.210;2024-03-23T09:02:33;0;0;
80628;PMS5003;69983;42.370;-71.210;2024-03-23T09:04:33;0;0;
80628;PMS5003;69983;42.370;-71.210;2024-03-23T09:06:33;0;0;
80628;PMS5003;69983;42.370;-71.210;2024-03-23T09:08:33;0;0;
80628;PMS5003;69983;42.370;-71.210;2024-03-23T09:10:37;0;0;
80628;PMS5003;69983;42.370;-71.210;2024-03-23T09:12:34;0;0;
80628;PMS5003;69983;42.370;-71.210;2024-03-23T09:14:33;0;0;
80628;PMS5003;69983;42.370;-71.210;2024-03-23T09:16:33;0;0;
80628;PMS5003;69983;42.370;-71.210;2024-03-23T09:18:34;0;0;
80628;PMS5003;69983;42.370;-71.210;2024-03-23T09:20:34;0;0;
80628;PMS5003;69983;42.370;-71.210;2024-03-23T09:22:34;0;0;
80628;PMS5003;69983;42.370;-71.210;2024-03-23T09:24:34;0;0;
80628;PMS5003;69983;42.370;-71.210;2024-03-23T09:26:34;0;0;
80628;PMS5003;69983;42.370;-71.210;2024-03-23T09:28:34;0;0;
80628;PMS5003;69983;42.370;-71.210;2024-03-23T09:30:34;0;0;
80628;PMS5003;69983;42.370;-71.210;2024-03-23T09:32:34;0;0;
80628;PMS5003;69983;42.370;-71.210;2024-03-23T09:34:34;1;0;
80628;PMS5003;69983;42.370;-71.210;2024-03-23T09:36:34;0;0;
80628;PMS5003;69983;42.370;-71.210;2024-03-23T09:38:34;0;0;
80628;PMS5003;69983;42.370;-71.210;2024-03-23T09:40:35;0;0;
80628;PMS5003;69983;42.370;-71.210;2024-03-23T09:42:35;0;0;
80628;PMS5003;69983;42.370;-71.210;2024-03-23T09:44:35;0;0;
80628;PMS5003;69983;42.370;-71.210;2024-03-23T09:46:35;0;0;
80628;PMS5003;69983;42.370;-71.210;2024-03-23T09:48:35;0;0;
80628;PMS5003;69983;42.370;-71.210;2024-03-23T09:50:36;0;0;
80628;PMS5003;69983;42.370;-71.210;2024-03-23T09:52:35;0;0;
80628;PMS5003;69983;42.370;-71.210;2024-03-23T09:54:35;0;0;
80628;PMS5003;69983;42.370;-71.210;2024-03-23T09:56:35;0;0;
80628;PMS5003;69983;42.370;-71.210;2024-03-23T09:58:35;0;0;
80628;PMS5003;69983;42.370;-71.210;2024-03-23T10:00:35;0;0;
80628;PMS5003;69983;42.370;-71.210;2024-03-23T10:02:36;0;0;
80628;PMS5003;69983;42.370;-71.210;2024-03-23T10:04:37;0;0;
80628;PMS5003;69983;42.370;-71.210;2024-03-23T10:06:36;0;0;
80628;PMS5003;69983;42.370;-71.210;2024-03-23T10:08:36;0;0;
80628;PMS5003;69983;42.370;-71.210;2024-03-23T10:10:36;0;0;
80628;PMS5003;69983;42.370;-71.210;2024-03-23T10:12:39;0;0;
80628;PMS5003;69983;42.370;-71.210;2024-03-23T10:14:36;0;0;
80628;PMS5003;69983;42.370;-71.210;2024-03-23T10:16:36;0;0;
80628;PMS5003;69983;42.370;-71.210;2024-03-23T10:18:37;0;0;
80628;PMS5003;69983;42.370;-71.210;2024-03-23T10:20:36;0;0;
80628;PMS5003;69983;42.370;-71.210;2024-03-23T10:22:37;0;0;
80628;PMS5003;69983;42.370;-71.210;2024-03-23T10:24:36;0;0;
80628;PMS5003;69983;42.370;-71.210;2024-03-23T10:26:36;0;0;
80628;PMS5003;69983;42.370;-71.210;2024-03-23T10:28:36;0;0;
80628;PMS5003;69983;42.370;-71.210;2024-03-23T10:30:37;0;0;
80628;PMS5003;69983;42.370;-71.210;2024-03-23T10:32:37;0;0;
80628;PMS5003;69983;42.370;-71.210;2024-03-23T10:34:37;0;0;
80628;PMS5003;69983;42.370;-71.210;2024-03-23T10:36:37;0;0;
80628;PMS5003;69983;42.370;-71.210;2024-03-23T10:38:37;0;0;
80628;PMS5003;69983;42.370;-71.210;2024-03-23T10:40:37;0;0;
80628;PMS5003;69983;42.370;-71.210;2024-03-23T10:42:37;0;0;
80628;PMS5003;69983;42.370;-71.210;2024-03-23T10:44:37;0;0;
80628;PMS5003;69983;42.370;-71.210;2024-03-23T10:46:37;0;0;
80628;PMS5003;69983;42.370;-71.210;2024-03-23T10:48:37;0;0;
80628;PMS5003;69983;42.370;-71.210;2024-03-23T10:50:37;0;0;
80628;PMS5003;69983;42.370;-71.210;2024-03-23T10:52:38;0;0;
80628;PMS5003;69983;42.370;-71.210;2024-03-23T10:54:38;0;0;
80628;PMS5003;69983;42.370;-71.210;2024-03-23T10:56:38;0;0;
80628;PMS5003;69983;42.370;-71.210;2024-03-23T10:58:38;0;0;
80628;PMS5003;69983;42.370;-71.210;2024-03-23T11:00:38;0;0;
80628;PMS5003;69983;42.370;-71.210;2024-03-23T11:02:38;0;0;
80628;PMS5003;69983;42.370;-71.210;2024-03-23T11:04:38;0;0;
80628;PMS5003;69983;42.370;-71.210;2024-03-23T11:06:38;0;0;
80628;PMS5003;69983;42.370;-71.210;2024-03-23T11:08:39;0;0;
80628;PMS5003;69983;42.370;-71.210;2024-03-23T11:10:38;0;0;
80628;PMS5003;69983;42.370;-71.210;2024-03-23T11:12:38;0;0;
80628;PMS5003;69983;42.370;-71.210;2024-03-23T11:14:39;0;0;
80628;PMS5003;69983;42.370;-71.210;2024-03-23T11:16:39;0;0;
80628;PMS5003;69983;42.370;-71.210;2024-03-23T11:18:39;0;0;
80628;PMS5003;69983;42.370;-71.210;2024-03-23T11:20:39;0;0;
80628;PMS5003;69983;42.370;-71.210;2024-03-23T11:22:43;0;0;
80628;PMS5003;69983;42.370;-71.210;2024-03-23T11:24:39;0;0;
80628;PMS5003;69983;42.370;-71.210;2024-03-23T11:26:39;0;0;
80628;PMS5003;69983;42.370;-71.210;2024-03-23T11:28:39;0;0;
80628;PMS5003;69983;42.370;-71.210;2024-03-23T11:30:39;0;0;
80628;PMS5003;69983;42.370;-71.210;2024-03-23T11:32:40;0;0;
80628;PMS5003;69983;42.370;-71.210;2024-03-23T11:34:39;0;0;
80628;PMS5003;69983;42.370;-71.210;2024-03-23T11:36:40;0;0;
80628;PMS5003;69983;42.370;-71.210;2024-03-23T11:38:40;0;0;
80628;PMS5003;69983;42.370;-71.210;2024-03-23T11:40:40;0;0;
80628;PMS5003;69983;42.370;-71.210;2024-03-23T11:42:41;69;55;
80628;PMS5003;69983;42.370;-71.210;2024-03-23T11:44:41;69;61;
80628;PMS5003;69983;42.370;-71.210;2024-03-23T11:46:41;67;54;
80628;PMS5003;69983;42.370;-71.210;2024-03-23T11:48:48;59;49;
80628;PMS5003;69983;42.370;-71.210;2024-03-23T11:50:43;42;37;
80628;PMS5003;69983;42.370;-71.210;2024-03-23T11:52:43;49;36;
80628;PMS5003;69983;42.370;-71.210;2024-03-23T11:54:43;47;32;
80628;PMS5003;69983;42.370;-71.210;2024-03-23T11:56:53;32;31;
80628;PMS5003;69983;42.370;-71.210;2024-03-23T11:58:44;30;24;
80628;PMS5003;69983;42.370;-71.210;2024-03-23T12:00:49;25;21;
80628;PMS5003;69983;42.370;-71.210;2024-03-23T12:02:45;21;17;
80628;PMS5003;69983;42.370;-71.210;2024-03-23T12:04:45;17;16;
80628;PMS5003;69983;42.370;-71.210;2024-03-23T12:06:45;15;15;
80628;PMS5003;69983;42.370;-71.210;2024-03-23T12:08:45;12;12;
80628;PMS5003;69983;42.370;-71.210;2024-03-23T12:10:46;10;10;
80628;PMS5003;69983;42.370;-71.210;2024-03-23T12:12:46;8;8;
80628;PMS5003;69983;42.370;-71.210;2024-03-23T12:15:01;10;10;
80628;PMS5003;69983;42.370;-71.210;2024-03-23T12:16:46;6;6;
80628;PMS5003;69983;42.370;-71.210;2024-03-23T12:18:47;7;5;
80628;PMS5003;69983;42.370;-71.210;2024-03-23T12:20:46;8;6;
80628;PMS5003;69983;42.370;-71.210;2024-03-23T12:22:47;5;4;
80628;PMS5003;69983;42.370;-71.210;2024-03-23T12:24:47;4;4;
80628;PMS5003;69983;42.370;-71.210;2024-03-23T12:26:47;3;3;
80628;PMS5003;69983;42.370;-71.210;2024-03-23T12:28:47;2;2;
80628;PMS5003;69983;42.370;-71.210;2024-03-23T12:30:47;6;4;
80628;PMS5003;69983;42.370;-71.210;2024-03-23T12:32:47;2;2;
80628;PMS5003;69983;42.370;-71.210;2024-03-23T12:34:47;2;2;
80628;PMS5003;69983;42.370;-71.210;2024-03-23T12:36:47;1;1;
80628;PMS5003;69983;42.370;-71.210;2024-03-23T12:38:47;1;1;
80628;PMS5003;69983;42.370;-71.210;2024-03-23T12:40:47;2;2;
80628;PMS5003;69983;42.370;-71.210;2024-03-23T12:42:48;0;0;
80628;PMS5003;69983;42.370;-71.210;2024-03-23T12:44:47;1;0;
80628;PMS5003;69983;42.370;-71.210;2024-03-23T12:46:47;0;0;
80628;PMS5003;69983;42.370;-71.210;2024-03-23T12:48:48;0;0;
80628;PMS5003;69983;42.370;-71.210;2024-03-23T12:50:48;0;0;
80628;PMS5003;69983;42.370;-71.210;2024-03-23T12:52:48;0;0;
80628;PMS5003;69983;42.370;-71.210;2024-03-23T12:54:48;0;0;
80628;PMS5003;69983;42.370;-71.210;2024-03-23T12:56:48;0;0;
80628;PMS5003;69983;42.370;-71.210;2024-03-23T12:58:48;0;0;
80628;PMS5003;69983;42.370;-71.210;2024-03-23T13:00:48;0;0;
80628;PMS5003;69983;42.370;-71.210;2024-03-23T13:02:49;1;1;
80628;PMS5003;69983;42.370;-71.210;2024-03-23T13:04:49;0;0;
80628;PMS5003;69983;42.370;-71.210;2024-03-23T13:06:48;0;0;
80628;PMS5003;69983;42.370;-71.210;2024-03-23T13:08:49;0;0;
80628;PMS5003;69983;42.370;-71.210;2024-03-23T13:10:51;0;0;
80628;PMS5003;69983;42.370;-71.210;2024-03-23T13:12:49;2;0;
80628;PMS5003;69983;42.370;-71.210;2024-03-23T13:14:49;0;0;
80628;PMS5003;69983;42.370;-71.210;2024-03-23T13:16:49;0;0;
80628;PMS5003;69983;42.370;-71.210;2024-03-23T13:18:49;0;0;
80628;PMS5003;69983;42.370;-71.210;2024-03-23T13:20:49;0;0;
80628;PMS5003;69983;42.370;-71.210;2024-03-23T13:22:49;0;0;
80628;PMS5003;69983;42.370;-71.210;2024-03-23T13:24:49;0;0;
80628;PMS5003;69983;42.370;-71.210;2024-03-23T13:26:50;0;0;
80628;PMS5003;69983;42.370;-71.210;2024-03-23T13:28:49;0;0;
80628;PMS5003;69983;42.370;-71.210;2024-03-23T13:30:50;0;0;
80628;PMS5003;69983;42.370;-71.210;2024-03-23T13:32:50;0;0;
80628;PMS5003;69983;42.370;-71.210;2024-03-23T13:34:50;0;0;
80628;PMS5003;69983;42.370;-71.210;2024-03-23T13:36:50;0;0;
80628;PMS5003;69983;42.370;-71.210;2024-03-23T13:38:50;0;0;
80628;PMS5003;69983;42.370;-71.210;2024-03-23T13:40:51;0;0;
80628;PMS5003;69983;42.370;-71.210;2024-03-23T13:42:50;0;0;
80628;PMS5003;69983;42.370;-71.210;2024-03-23T13:44:50;0;0;
80628;PMS5003;69983;42.370;-71.210;2024-03-23T13:46:50;0;0;
80628;PMS5003;69983;42.370;-71.210;2024-03-23T13:48:50;0;0;